Time;durP1;ratioP1;P1;durP2;ratioP2;P2;SDS_P1;SDS_P2;PMS_P1;PMS_P2;Temp;Humidity;BMP_temperature;BMP_pressure;BME280_temperature;BME280_humidity;BME280_pressure;Samples;Min_cycle;Max_cycle;Signal;HPM_P1;HPM_P2
2024/04/09 00:01:20;;;;;;;11.80;3.70;;;;;;;15.13;50.43;99851.36;79337;1295;3011667;-59
2024/04/09 00:03:48;;;;;;;10.70;3.90;;;;;;;15.09;50.53;99846.15;78163;1294;3054650;-59
2024/04/09 00:06:15;;;;;;;6.60;3.40;;;;;;;15.03;50.46;99848.73;79469;1295;3013410;-58
2024/04/09 00:08:44;;;;;;;7.30;3.20;;;;;;;15.03;50.45;99846.95;79325;1295;3011640;-60
2024/04/09 00:11:20;;;;;;;9.80;3.80;;;;;;;15.04;50.34;99849.69;78242;1294;3052390;-59
2024/04/09 00:13:52;;;;;;;10.00;3.90;;;;;;;15.06;50.26;99852.05;78102;1300;3052752;-59
2024/04/09 00:16:22;;;;;;;8.60;3.30;;;;;;;15.00;50.69;99851.61;79293;1300;3013452;-62
2024/04/09 00:18:50;;;;;;;5.60;3.00;;;;;;;15.02;50.51;99850.17;78183;1294;3053069;-58
2024/04/09 00:21:17;;;;;;;11.20;3.50;;;;;;;15.06;50.15;99854.13;79575;1299;3012990;-57
2024/04/09 00:23:44;;;;;;;8.50;3.30;;;;;;;15.06;50.48;99848.70;79363;1295;3012818;-59
2024/04/09 00:26:12;;;;;;;10.30;3.70;;;;;;;15.07;50.49;99853.02;78051;1301;3029140;-60
2024/04/09 00:28:38;;;;;;;7.50;3.80;;;;;;;15.04;50.61;99855.32;79650;1294;3020495;-60
2024/04/09 00:31:05;;;;;;;7.10;3.90;;;;;;;14.94;51.00;99853.75;79333;1298;3011618;-59
2024/04/09 00:33:33;;;;;;;7.80;3.60;;;;;;;14.92;51.22;99855.48;78860;1295;3027717;-57
2024/04/09 00:35:59;;;;;;;6.40;3.40;;;;;;;14.90;51.08;99857.98;80126;1294;3013464;-57
2024/04/09 00:38:27;;;;;;;8.50;3.50;;;;;;;14.88;51.43;99855.77;80081;1295;3011710;-58
2024/04/09 00:40:55;;;;;;;7.80;3.50;;;;;;;14.87;51.38;99857.64;78145;1294;3049117;-58
2024/04/09 00:43:22;;;;;;;8.00;3.60;;;;;;;14.92;51.35;99861.88;79293;1299;3021126;-56
2024/04/09 00:45:49;;;;;;;11.00;3.50;;;;;;;14.91;51.38;99862.61;79400;1301;3011698;-60
2024/04/09 00:48:17;;;;;;;12.70;3.50;;;;;;;14.92;51.40;99862.39;78041;1296;3052685;-58
2024/04/09 00:50:45;;;;;;;15.10;3.50;;;;;;;14.89;51.48;99863.84;79335;1295;3013435;-60
2024/04/09 00:53:12;;;;;;;11.20;3.90;;;;;;;14.86;51.22;99859.11;79264;1295;3011412;-59
2024/04/09 00:55:42;;;;;;;11.50;3.70;;;;;;;14.78;51.53;99862.71;78041;1295;3050459;-58
2024/04/09 00:58:10;;;;;;;10.50;3.50;;;;;;;14.74;51.49;99861.55;79356;1301;3011514;-59
2024/04/09 01:00:40;;;;;;;6.70;3.70;;;;;;;14.69;51.64;99863.66;78128;1299;3027974;-59
2024/04/09 01:03:09;;;;;;;7.50;3.50;;;;;;;14.64;52.05;99860.35;79443;1299;3011333;-59
2024/04/09 01:05:37;;;;;;;7.50;3.90;;;;;;;14.65;51.73;99860.62;78142;1295;3028539;-58
2024/04/09 01:08:04;;;;;;;10.90;3.60;;;;;;;14.58;51.90;99860.52;79366;1294;3013918;-61
2024/04/09 01:10:32;;;;;;;4.40;3.10;;;;;;;14.44;52.20;99859.55;79472;1295;3011684;-61
2024/04/09 01:13:00;;;;;;;8.30;4.20;;;;;;;14.25;52.51;99861.45;78061;1301;3049730;-59
2024/04/09 01:15:27;;;;;;;9.30;4.00;;;;;;;14.25;52.21;99861.77;79261;1301;3013359;-59
2024/04/09 01:17:53;;;;;;;8.80;3.60;;;;;;;14.12;52.44;99865.15;79317;1294;3013849;-58
2024/04/09 01:20:21;;;;;;;10.70;3.80;;;;;;;14.03;52.93;99859.60;78017;1296;3027981;-59
2024/04/09 01:22:48;;;;;;;11.20;4.30;;;;;;;13.96;52.90;99858.34;79369;1299;3013430;-60
2024/04/09 01:25:15;;;;;;;9.20;3.90;;;;;;;14.00;53.03;99861.59;79318;1300;3011625;-58
2024/04/09 01:27:43;;;;;;;9.60;4.30;;;;;;;13.96;53.24;99859.90;78013;1296;3027237;-60
2024/04/09 01:30:12;;;;;;;8.50;3.80;;;;;;;14.01;53.25;99863.64;79278;1298;3013512;-58
2024/04/09 01:32:41;;;;;;;6.80;3.60;;;;;;;13.95;53.63;99866.16;78785;1299;3011845;-58
2024/04/09 01:35:08;;;;;;;11.50;3.70;;;;;;;13.98;53.65;99865.08;79347;1300;3013593;-62
2024/04/09 01:37:38;;;;;;;7.60;3.80;;;;;;;13.96;53.28;99865.04;79381;1300;3011452;-60
2024/04/09 01:40:07;;;;;;;9.60;3.70;;;;;;;13.99;52.97;99867.80;78043;1294;3048644;-60
2024/04/09 01:42:34;;;;;;;7.00;3.80;;;;;;;13.88;53.52;99867.31;79344;1294;3011676;-60
2024/04/09 01:45:00;;;;;;;7.80;3.90;;;;;;;13.81;53.47;99870.45;79370;1295;3011875;-58
2024/04/09 01:47:28;;;;;;;9.50;4.50;;;;;;;13.76;53.77;99873.09;78154;1299;3053287;-60
2024/04/09 01:49:57;;;;;;;9.50;3.70;;;;;;;13.73;53.71;99876.59;79237;1295;3012972;-60
2024/04/09 01:52:25;;;;;;;8.10;3.80;;;;;;;13.67;53.81;99872.06;79218;1295;3013249;-60
2024/04/09 01:54:53;;;;;;;7.60;3.60;;;;;;;13.64;53.80;99874.89;78055;1300;3049916;-59
2024/04/09 01:57:21;;;;;;;12.00;3.80;;;;;;;13.62;53.51;99872.40;79283;1295;3013099;-59
2024/04/09 01:59:47;;;;;;;7.00;3.20;;;;;;;13.68;53.46;99872.67;79208;1294;3011929;-60
2024/04/09 02:02:16;;;;;;;9.80;2.80;;;;;;;13.71;53.24;99872.14;78077;1295;3053642;-59
2024/04/09 02:04:44;;;;;;;6.20;3.20;;;;;;;13.69;53.33;99871.95;79289;1294;3013537;-60
2024/04/09 02:07:11;;;;;;;8.40;3.10;;;;;;;13.66;53.51;99876.37;79298;1295;3011884;-61
2024/04/09 02:09:39;;;;;;;6.70;3.00;;;;;;;13.61;53.96;99880.07;78162;1299;3048849;-59
2024/04/09 02:12:07;;;;;;;5.40;2.90;;;;;;;13.59;53.72;99876.61;79251;1295;3012961;-61
2024/04/09 02:14:35;;;;;;;8.20;3.40;;;;;;;13.60;54.03;99874.81;79311;1295;3011536;-60
2024/04/09 02:17:03;;;;;;;9.20;3.10;;;;;;;13.62;54.06;99881.60;78091;1300;3052900;-60
2024/04/09 02:19:30;;;;;;;9.60;3.40;;;;;;;13.62;53.61;99880.33;79476;1294;3012929;-61
2024/04/09 02:21:56;;;;;;;9.30;3.80;;;;;;;13.63;53.79;99881.16;79516;1295;3011617;-61
2024/04/09 02:24:25;;;;;;;8.10;3.10;;;;;;;13.59;54.18;99882.96;78095;1299;3026563;-62
2024/04/09 02:26:52;;;;;;;9.00;3.10;;;;;;;13.56;54.18;99887.43;79285;1295;3014545;-60
2024/04/09 02:29:19;;;;;;;7.70;3.70;;;;;;;13.59;54.06;99885.63;79274;1294;3011785;-60
2024/04/09 02:31:47;;;;;;;6.80;3.60;;;;;;;13.61;54.35;99887.98;78077;1299;3052496;-60
2024/04/09 02:34:14;;;;;;;10.00;3.80;;;;;;;13.62;54.34;99892.47;79420;1299;3013553;-57
2024/04/09 02:36:40;;;;;;;8.50;3.70;;;;;;;13.66;54.67;99892.02;79240;1299;3011926;-59
2024/04/09 02:39:08;;;;;;;10.30;3.80;;;;;;;13.75;54.70;99891.09;78059;1298;3026256;-59
2024/04/09 02:41:36;;;;;;;7.40;3.20;;;;;;;13.72;54.35;99891.43;79246;1295;3013199;-58
2024/04/09 02:44:03;;;;;;;8.60;3.40;;;;;;;13.66;54.18;99895.19;79227;1296;3011710;-58
2024/04/09 02:46:31;;;;;;;10.10;4.00;;;;;;;13.66;54.71;99889.42;78116;1299;3051831;-58
2024/04/09 02:48:58;;;;;;;6.60;3.80;;;;;;;13.64;55.36;99884.42;79393;1298;3013228;-58
2024/04/09 02:51:25;;;;;;;9.00;3.20;;;;;;;13.71;55.05;99886.25;79306;1300;3013191;-59
2024/04/09 02:53:53;;;;;;;8.30;3.70;;;;;;;13.83;54.95;99888.28;78147;1299;3028578;-60
2024/04/09 02:56:19;;;;;;;3.90;2.70;;;;;;;13.93;54.62;99886.86;79294;1299;3013093;-58
2024/04/09 02:58:46;;;;;;;10.40;3.40;;;;;;;14.10;54.53;99883.95;79204;1301;3011901;-57
2024/04/09 03:01:14;;;;;;;5.50;2.90;;;;;;;14.28;54.17;99888.39;78131;1299;3026776;-61
2024/04/09 03:03:41;;;;;;;6.10;3.10;;;;;;;14.40;53.85;99887.38;79402;1294;3013485;-57
2024/04/09 03:06:08;;;;;;;8.40;3.50;;;;;;;14.40;53.58;99892.29;79546;1294;3013961;-60
2024/04/09 03:08:39;;;;;;;12.20;4.10;;;;;;;14.35;53.58;99892.87;78212;1295;3048180;-58
2024/04/09 03:11:16;;;;;;;8.30;4.30;;;;;;;14.22;53.76;99891.40;79547;1294;3013243;-60
2024/04/09 03:13:45;;;;;;;9.70;4.40;;;;;;;14.17;54.09;99890.94;78217;1297;3051681;-59
2024/04/09 03:16:12;;;;;;;6.10;3.50;;;;;;;14.26;53.70;99889.20;79569;1295;3013415;-59
2024/04/09 03:18:39;;;;;;;6.90;3.10;;;;;;;14.38;53.96;99889.29;79409;1295;3011768;-59
2024/04/09 03:21:07;;;;;;;10.90;3.70;;;;;;;14.49;53.54;99889.58;78308;1298;3052161;-61
2024/04/09 03:23:34;;;;;;;9.00;4.10;;;;;;;14.51;53.49;99892.44;79415;1295;3014413;-61
2024/04/09 03:26:01;;;;;;;11.20;4.10;;;;;;;14.56;53.65;99892.60;79369;1295;3011734;-62
2024/04/09 03:28:29;;;;;;;7.10;4.10;;;;;;;14.68;53.12;99892.47;78171;1297;3048619;-58
2024/04/09 03:31:00;;;;;;;6.90;3.80;;;;;;;14.68;52.27;99897.23;79550;1298;3013896;-59
2024/04/09 03:33:28;;;;;;;8.20;3.60;;;;;;;14.54;52.67;99901.23;78153;1298;3067254;-61
2024/04/09 03:35:56;;;;;;;8.80;3.10;;;;;;;14.52;53.31;99897.46;79722;1294;3018242;-60
2024/04/09 03:38:23;;;;;;;9.70;3.20;;;;;;;14.76;52.91;99896.17;79436;1295;3011733;-60
2024/04/09 03:41:01;;;;;;;6.80;2.60;;;;;;;15.08;52.29;99895.10;78225;1295;3053118;-60
2024/04/09 03:43:29;;;;;;;5.70;2.10;;;;;;;15.37;51.68;99894.36;78190;1298;3050087;-58
2024/04/09 03:46:09;;;;;;;6.80;2.80;;;;;;;15.61;50.95;99896.36;79534;1295;3012881;-62
2024/04/09 03:48:42;;;;;;;6.60;3.70;;;;;;;15.77;50.60;99899.23;78176;1295;3069239;-62
2024/04/09 03:51:10;;;;;;;9.20;4.50;;;;;;;15.83;50.46;99898.30;79533;1295;3011652;-60
2024/04/09 03:53:39;;;;;;;20.90;7.40;;;;;;;15.76;49.88;99898.75;78329;1298;3057042;-60
2024/04/09 03:56:06;;;;;;;14.10;6.30;;;;;;;15.54;50.07;99905.52;79320;1295;3020514;-60
2024/04/09 03:58:35;;;;;;;18.10;6.10;;;;;;;15.40;50.53;99908.65;79256;1294;3011859;-60
2024/04/09 04:01:03;;;;;;;13.70;5.30;;;;;;;15.21;50.82;99910.38;77968;1298;3051859;-60
2024/04/09 04:03:34;;;;;;;11.10;3.90;;;;;;;15.14;51.16;99913.54;79279;1295;3014364;-59
2024/04/09 04:06:03;;;;;;;7.00;3.70;;;;;;;15.12;51.20;99919.48;78099;1296;3052397;-60
2024/04/09 04:08:31;;;;;;;9.30;3.70;;;;;;;15.03;51.40;99923.51;79401;1295;3013925;-60
2024/04/09 04:10:59;;;;;;;9.70;3.90;;;;;;;15.01;51.41;99919.58;79307;1298;3013138;-59
2024/04/09 04:13:29;;;;;;;11.30;3.80;;;;;;;14.87;52.10;99920.39;78277;1295;3051189;-60
2024/04/09 04:16:05;;;;;;;9.90;4.90;;;;;;;14.76;52.25;99915.88;79434;1298;3012912;-57
2024/04/09 04:18:37;;;;;;;6.90;3.80;;;;;;;14.84;51.89;99914.10;78255;1298;3053338;-60
2024/04/09 04:21:04;;;;;;;11.80;3.80;;;;;;;14.97;51.81;99914.55;79707;1294;3012789;-57
2024/04/09 04:23:32;;;;;;;11.90;3.70;;;;;;;15.18;51.64;99910.61;78574;1295;3052391;-62
2024/04/09 04:26:02;;;;;;;10.80;4.10;;;;;;;15.39;51.41;99910.11;79385;1295;3013692;-59
2024/04/09 04:28:32;;;;;;;10.40;3.60;;;;;;;15.65;50.62;99909.80;78829;1295;3011594;-58
2024/04/09 04:30:59;;;;;;;13.50;3.80;;;;;;;15.86;50.20;99912.73;79449;1295;3015849;-61
2024/04/09 04:33:26;;;;;;;12.80;3.70;;;;;;;16.01;49.85;99914.41;79398;1298;3011601;-58
2024/04/09 04:35:54;;;;;;;15.30;3.80;;;;;;;16.13;49.57;99916.88;78214;1298;3052149;-61
2024/04/09 04:38:21;;;;;;;16.70;4.60;;;;;;;16.21;49.49;99918.48;79317;1295;3013384;-60
2024/04/09 04:40:48;;;;;;;22.40;5.00;;;;;;;16.25;49.24;99914.30;79449;1295;3011920;-60
2024/04/09 04:43:16;;;;;;;18.30;4.60;;;;;;;16.25;49.56;99914.98;78369;1298;3026654;-61
2024/04/09 04:45:43;;;;;;;25.20;5.30;;;;;;;16.29;49.43;99913.98;79510;1295;3020588;-61
2024/04/09 04:48:10;;;;;;;23.20;5.30;;;;;;;16.31;49.39;99914.98;79389;1298;3011584;-61
2024/04/09 04:50:38;;;;;;;17.30;4.70;;;;;;;16.35;49.29;99914.27;78208;1298;3028227;-60
2024/04/09 04:53:05;;;;;;;17.70;4.60;;;;;;;16.41;49.16;99912.69;79430;1298;3013546;-60
2024/04/09 04:55:32;;;;;;;17.90;5.50;;;;;;;16.51;49.25;99917.42;79414;1298;3011596;-60
2024/04/09 04:58:01;;;;;;;22.90;6.00;;;;;;;16.60;49.21;99917.27;78236;1295;3025932;-59
2024/04/09 05:00:28;;;;;;;30.10;6.00;;;;;;;16.66;49.10;99915.40;79504;1295;3013677;-60
2024/04/09 05:02:55;;;;;;;18.90;5.50;;;;;;;16.70;49.20;99917.17;79455;1298;3011958;-59
2024/04/09 05:05:23;;;;;;;18.90;5.60;;;;;;;16.74;49.03;99919.52;78632;1294;3051686;-61
2024/04/09 05:07:50;;;;;;;15.50;5.40;;;;;;;16.82;48.60;99921.73;79920;1295;3013619;-65
2024/04/09 05:10:19;;;;;;;25.30;4.00;;;;;;;16.94;48.20;99916.91;79575;1295;3013084;-63
2024/04/09 05:12:48;;;;;;;18.40;5.10;;;;;;;17.09;47.88;99918.70;78991;1294;3049851;-59
2024/04/09 05:15:15;;;;;;;21.50;5.20;;;;;;;17.24;47.73;99925.33;79706;1297;3013074;-61
2024/04/09 05:17:42;;;;;;;23.80;5.70;;;;;;;17.36;47.68;99921.71;79531;1296;3011637;-61
2024/04/09 05:20:10;;;;;;;21.40;4.90;;;;;;;17.47;47.43;99922.02;78815;1295;3051204;-62
2024/04/09 05:22:41;;;;;;;32.10;6.70;;;;;;;17.56;47.23;99926.40;79706;1294;3018221;-59
2024/04/09 05:25:11;;;;;;;37.20;7.70;;;;;;;17.64;47.51;99927.38;78281;1298;3056926;-59
2024/04/09 05:27:38;;;;;;;28.10;6.90;;;;;;;17.69;47.66;99922.36;79778;1295;3013537;-61
2024/04/09 05:30:10;;;;;;;25.50;6.50;;;;;;;17.77;47.57;99923.62;78844;1294;3013464;-61
2024/04/09 05:32:43;;;;;;;22.60;5.50;;;;;;;17.86;47.31;99922.67;79506;1295;3012073;-61
2024/04/09 05:35:12;;;;;;;24.50;5.70;;;;;;;17.97;47.19;99921.95;78499;1294;3053508;-63
2024/04/09 05:37:38;;;;;;;26.70;6.60;;;;;;;18.10;46.27;99920.21;79630;1295;3012951;-62
2024/04/09 05:40:09;;;;;;;25.90;6.30;;;;;;;18.21;46.87;99925.98;79943;1294;3011539;-61
2024/04/09 05:42:46;;;;;;;27.60;5.80;;;;;;;18.34;46.73;99924.38;78164;1296;3055787;-61
2024/04/09 05:45:21;;;;;;;34.20;6.00;;;;;;;18.43;46.33;99926.41;78380;1295;3049135;-61
2024/04/09 05:47:50;;;;;;;18.40;5.40;;;;;;;18.52;45.52;99928.13;79142;1295;3012033;-61
2024/04/09 05:50:17;;;;;;;25.80;6.10;;;;;;;18.63;45.82;99924.87;79588;1295;3013127;-63
2024/04/09 05:52:45;;;;;;;27.50;7.00;;;;;;;18.76;45.67;99930.31;80148;1295;3011916;-62
2024/04/09 05:55:13;;;;;;;40.30;7.50;;;;;;;18.86;45.89;99931.58;79490;1295;3051860;-63
2024/04/09 05:57:41;;;;;;;32.50;7.80;;;;;;;18.93;45.74;99925.63;79685;1295;3013317;-61
2024/04/09 06:00:13;;;;;;;31.10;7.70;;;;;;;19.02;46.10;99929.65;79936;1294;3011771;-62
2024/04/09 06:02:45;;;;;;;40.30;9.30;;;;;;;19.13;46.15;99928.90;78158;1298;3048844;-62
2024/04/09 06:05:11;;;;;;;31.50;7.70;;;;;;;19.21;45.76;99926.41;79622;1295;3011998;-62
2024/04/09 06:07:39;;;;;;;35.00;8.20;;;;;;;19.31;45.69;99930.10;78381;1298;3025740;-61
2024/04/09 06:10:06;;;;;;;43.90;7.40;;;;;;;19.41;45.13;99929.91;79900;1297;3018459;-59
2024/04/09 06:12:33;;;;;;;19.50;6.10;;;;;;;19.51;44.66;99931.69;79860;1296;3011474;-67
2024/04/09 06:15:02;;;;;;;34.00;7.30;;;;;;;19.61;44.08;99929.04;78391;1298;3025371;-59
2024/04/09 06:17:29;;;;;;;22.60;7.30;;;;;;;19.72;43.75;99928.35;79860;1295;3015298;-59
2024/04/09 06:19:57;;;;;;;37.40;8.00;;;;;;;19.81;43.62;99931.25;79670;1295;3011895;-61
2024/04/09 06:22:25;;;;;;;33.40;7.00;;;;;;;19.90;43.29;99933.67;78110;1298;3049218;-59
2024/04/09 06:24:52;;;;;;;36.60;6.50;;;;;;;19.97;41.81;99933.95;79780;1295;3018758;-59
2024/04/09 06:29:56;;;;;;;24.80;7.00;;;;;;;20.04;41.50;99934.74;80321;1301;3013274;-59
2024/04/09 06:32:23;;;;;;;25.80;8.00;;;;;;;20.10;41.45;99934.71;79278;1298;3013719;-60
2024/04/09 06:34:49;;;;;;;19.30;5.70;;;;;;;20.16;41.19;99938.19;79239;1299;3011607;-59
2024/04/09 06:37:17;;;;;;;23.90;6.50;;;;;;;20.20;41.12;99940.14;78407;1303;3025775;-58
2024/04/09 06:39:44;;;;;;;27.20;6.50;;;;;;;20.25;40.93;99940.00;79440;1301;3013197;-60
2024/04/09 06:42:10;;;;;;;25.30;6.50;;;;;;;20.34;40.74;99938.17;79302;1304;3011988;-61
2024/04/09 06:44:38;;;;;;;28.60;6.20;;;;;;;20.45;40.26;99943.48;78251;1301;3025878;-60
2024/04/09 06:47:05;;;;;;;16.20;6.60;;;;;;;20.58;40.62;99939.06;79793;1297;3013457;-58
2024/04/09 06:49:32;;;;;;;19.40;6.40;;;;;;;20.71;40.83;99940.39;79788;1297;3012022;-61
2024/04/09 06:52:00;;;;;;;27.40;7.60;;;;;;;20.82;40.34;99942.73;78313;1301;3028741;-60
2024/04/09 06:54:27;;;;;;;20.90;6.50;;;;;;;20.88;39.99;99940.00;79275;1301;3020799;-60
2024/04/09 06:56:54;;;;;;;16.60;5.20;;;;;;;20.96;39.68;99936.34;79320;1301;3011753;-60
2024/04/09 06:59:22;;;;;;;28.40;7.10;;;;;;;20.99;38.85;99935.58;78513;1301;3048804;-61
2024/04/09 07:01:49;;;;;;;17.00;4.80;;;;;;;21.10;39.39;99938.56;79893;1300;3013439;-59
2024/04/09 07:04:15;;;;;;;24.60;7.10;;;;;;;21.22;39.60;99932.98;79466;1300;3011657;-59
2024/04/09 07:06:44;;;;;;;21.80;6.40;;;;;;;21.36;39.51;99932.32;78454;1299;3025498;-59
2024/04/09 07:09:16;;;;;;;25.40;7.10;;;;;;;21.45;39.18;99930.48;79716;1301;3013111;-60
2024/04/09 07:11:47;;;;;;;23.40;6.40;;;;;;;21.57;38.38;99933.12;78096;1301;3056579;-58
2024/04/09 07:14:14;;;;;;;23.00;5.60;;;;;;;21.65;38.02;99934.10;79444;1300;3011569;-58
2024/04/09 07:16:43;;;;;;;22.50;5.70;;;;;;;21.70;37.64;99923.94;78382;1300;3026595;-59
2024/04/09 07:19:09;;;;;;;26.20;6.10;;;;;;;21.76;38.48;99928.88;79818;1298;3013670;-59
2024/04/09 07:21:36;;;;;;;15.00;4.40;;;;;;;21.81;37.73;99932.52;79285;1301;3013515;-60
2024/04/09 07:24:06;;;;;;;13.50;3.10;;;;;;;21.76;36.40;99930.48;78089;1301;3026362;-60
2024/04/09 07:26:32;;;;;;;10.60;2.80;;;;;;;21.83;35.76;99929.67;80185;1298;3013541;-61
2024/04/09 07:28:59;;;;;;;14.90;2.90;;;;;;;21.92;35.58;99931.27;79836;1297;3011812;-59
2024/04/09 07:31:27;;;;;;;12.50;3.20;;;;;;;22.01;35.67;99927.66;78253;1299;3053713;-63
2024/04/09 07:33:54;;;;;;;13.20;3.60;;;;;;;22.10;35.77;99928.27;79637;1301;3015131;-60
2024/04/09 07:36:21;;;;;;;23.30;5.80;;;;;;;22.23;36.74;99928.99;79841;1300;3011690;-63
2024/04/09 07:38:49;;;;;;;27.40;7.30;;;;;;;22.33;37.75;99932.60;78479;1299;3027180;-61
2024/04/09 07:41:16;;;;;;;14.90;4.30;;;;;;;22.32;36.42;99928.10;79652;1298;3018802;-59
2024/04/09 07:43:42;;;;;;;11.80;3.70;;;;;;;22.36;35.11;99931.59;79383;1298;3011402;-62
2024/04/09 07:46:11;;;;;;;12.80;3.70;;;;;;;22.47;35.23;99934.75;78568;1301;3025831;-60
2024/04/09 07:48:37;;;;;;;16.40;4.60;;;;;;;22.58;34.91;99928.78;79250;1300;3013818;-60
2024/04/09 07:51:04;;;;;;;7.40;2.50;;;;;;;22.56;34.98;99927.73;79581;1298;3013365;-60
2024/04/09 07:53:32;;;;;;;8.50;2.40;;;;;;;22.69;34.62;99925.71;78086;1296;3026079;-60
2024/04/09 07:56:03;;;;;;;8.20;3.30;;;;;;;22.89;34.80;99922.52;79381;1299;3013053;-60
2024/04/09 07:58:31;;;;;;;11.10;3.30;;;;;;;23.00;34.17;99912.70;78086;1301;3049368;-62
2024/04/09 08:00:59;;;;;;;9.10;3.60;;;;;;;22.90;34.42;99920.27;79408;1298;3019656;-61
2024/04/09 08:03:26;;;;;;;10.90;3.80;;;;;;;23.00;34.63;99912.46;79254;1299;3011993;-61
2024/04/09 08:05:53;;;;;;;7.00;3.60;;;;;;;23.07;34.70;99912.79;78310;1301;3054023;-62
2024/04/09 08:08:20;;;;;;;6.30;2.20;;;;;;;23.06;34.37;99909.56;79347;1301;3018958;-62
2024/04/09 08:10:48;;;;;;;4.70;1.90;;;;;;;22.92;33.48;99907.59;79505;1298;3011600;-59
2024/04/09 08:13:16;;;;;;;5.80;2.30;;;;;;;23.09;33.26;99904.19;78329;1298;3051863;-60
2024/04/09 08:15:43;;;;;;;6.50;2.50;;;;;;;23.22;33.40;99903.77;79435;1301;3018493;-62
2024/04/09 08:18:10;;;;;;;6.80;2.90;;;;;;;23.21;33.24;99906.55;79418;1298;3013189;-61
2024/04/09 08:20:39;;;;;;;8.70;2.60;;;;;;;23.28;33.30;99900.37;78878;1298;3028273;-60
2024/04/09 08:23:06;;;;;;;7.30;2.80;;;;;;;23.40;33.12;99903.60;79611;1300;3011963;-60
2024/04/09 08:25:32;;;;;;;9.80;3.70;;;;;;;23.42;32.84;99901.96;79344;1300;3013306;-63
2024/04/09 08:28:01;;;;;;;15.00;4.50;;;;;;;23.44;32.72;99900.12;78109;1299;3049705;-61
2024/04/09 08:30:28;;;;;;;11.80;5.20;;;;;;;23.63;32.73;99892.34;79975;1299;3013312;-62
2024/04/09 08:32:55;;;;;;;14.30;5.50;;;;;;;23.75;32.35;99893.75;80284;1298;3011663;-60
2024/04/09 08:35:23;;;;;;;8.10;3.50;;;;;;;23.86;32.37;99891.70;78373;1301;3051123;-60
2024/04/09 08:37:50;;;;;;;6.80;2.50;;;;;;;23.89;32.33;99890.64;79410;1301;3013170;-61
2024/04/09 08:40:17;;;;;;;11.20;2.70;;;;;;;23.93;32.02;99889.80;79552;1300;3011967;-60
2024/04/09 08:42:45;;;;;;;15.70;4.30;;;;;;;23.89;31.95;99887.52;78128;1301;3049951;-60
2024/04/09 08:45:14;;;;;;;13.40;4.40;;;;;;;23.94;31.93;99887.36;79255;1301;3018503;-60
2024/04/09 08:47:43;;;;;;;11.90;4.20;;;;;;;23.98;31.76;99888.61;79414;1301;3013160;-61
2024/04/09 08:50:12;;;;;;;19.70;5.30;;;;;;;23.90;31.92;99883.33;77976;1300;3054897;-60
2024/04/09 08:52:39;;;;;;;18.30;5.10;;;;;;;23.73;32.14;99886.83;79322;1298;3012747;-59
2024/04/09 08:55:09;;;;;;;10.80;3.70;;;;;;;23.89;31.67;99886.92;79270;1297;3011550;-61
2024/04/09 08:57:37;;;;;;;8.20;3.30;;;;;;;24.07;31.35;99885.39;78232;1301;3048760;-58
2024/04/09 09:00:04;;;;;;;8.80;3.80;;;;;;;24.20;30.75;99883.45;79522;1298;3013215;-60
2024/04/09 09:02:32;;;;;;;9.40;2.60;;;;;;;24.21;30.60;99880.80;79839;1298;3011679;-59
2024/04/09 09:05:00;;;;;;;10.20;2.90;;;;;;;24.03;30.56;99881.21;78301;1301;3053329;-59
2024/04/09 09:07:28;;;;;;;9.70;3.30;;;;;;;24.05;31.01;99877.78;79555;1300;3011552;-61
2024/04/09 09:09:59;;;;;;;6.90;3.00;;;;;;;24.13;31.06;99872.10;79437;1299;3013762;-61
2024/04/09 09:12:28;;;;;;;6.80;2.30;;;;;;;24.23;30.89;99870.38;78271;1296;3048885;-60
2024/04/09 09:14:55;;;;;;;5.60;2.40;;;;;;;24.49;30.81;99862.02;79525;1301;3013645;-63
2024/04/09 09:17:22;;;;;;;7.20;2.90;;;;;;;24.64;30.50;99866.20;79738;1295;3011716;-60
2024/04/09 09:19:57;;;;;;;11.00;2.90;;;;;;;24.85;30.59;99863.14;78501;1297;3054376;-61
2024/04/09 09:22:30;;;;;;;10.30;3.20;;;;;;;24.97;30.33;99855.70;79102;1301;3013916;-63
2024/04/09 09:24:57;;;;;;;10.20;4.10;;;;;;;25.00;30.82;99856.75;79478;1300;3011384;-60
2024/04/09 09:27:26;;;;;;;12.00;4.30;;;;;;;24.79;31.28;99858.58;78458;1299;3025825;-61
2024/04/09 09:29:56;;;;;;;12.70;3.90;;;;;;;24.50;31.69;99861.31;79668;1300;3012846;-61
2024/04/09 09:32:24;;;;;;;11.60;3.80;;;;;;;24.33;32.01;99853.35;78309;1296;3053047;-61
2024/04/09 09:34:54;;;;;;;11.10;4.10;;;;;;;24.38;32.11;99847.25;79443;1301;3013430;-61
2024/04/09 09:37:22;;;;;;;14.30;4.50;;;;;;;24.40;32.03;99848.65;78310;1301;3053663;-60
2024/04/09 09:39:50;;;;;;;17.30;4.00;;;;;;;24.35;32.28;99848.80;79470;1301;3013696;-60
2024/04/09 09:42:16;;;;;;;13.00;4.00;;;;;;;24.35;32.38;99848.11;79607;1297;3013430;-58
2024/04/09 09:44:45;;;;;;;11.00;4.00;;;;;;;24.27;32.28;99844.70;78207;1301;3050175;-59
2024/04/09 09:47:11;;;;;;;13.60;3.90;;;;;;;24.25;32.45;99850.80;79393;1301;3013177;-61
2024/04/09 09:49:38;;;;;;;15.70;4.60;;;;;;;24.14;32.53;99850.63;79173;1299;3013962;-62
2024/04/09 09:52:06;;;;;;;13.00;4.50;;;;;;;24.10;32.64;99847.18;78151;1301;3052981;-61
2024/04/09 09:54:33;;;;;;;15.30;4.20;;;;;;;24.06;32.75;99847.09;79447;1300;3013205;-63
2024/04/09 09:57:08;;;;;;;12.50;4.20;;;;;;;24.02;32.87;99848.21;79841;1300;3013821;-61
2024/04/09 09:59:46;;;;;;;14.40;4.50;;;;;;;24.11;32.59;99852.36;78249;1296;3049632;-58
2024/04/09 10:02:14;;;;;;;9.40;4.00;;;;;;;24.16;32.55;99849.17;78331;1298;3053704;-60
2024/04/09 10:04:40;;;;;;;10.20;4.30;;;;;;;24.17;32.53;99849.98;79342;1302;3018286;-60
2024/04/09 10:07:07;;;;;;;12.30;4.10;;;;;;;24.22;32.32;99850.50;79331;1304;3011847;-61
2024/04/09 10:09:42;;;;;;;6.60;3.60;;;;;;;24.32;32.19;99845.44;78096;1302;3026047;-60
2024/04/09 10:12:25;;;;;;;4.80;2.90;;;;;;;24.32;32.18;99846.53;79144;1301;3013678;-60
2024/04/09 10:15:11;;;;;;;9.40;2.70;;;;;;;24.30;31.84;99845.94;78095;1301;3052235;-61
2024/04/09 10:17:53;;;;;;;5.00;2.00;;;;;;;24.43;31.73;99841.20;77902;1296;3056438;-60
2024/04/09 10:20:30;;;;;;;8.40;2.30;;;;;;;24.59;31.49;99835.56;78253;1301;3049837;-59
2024/04/09 10:23:01;;;;;;;9.60;2.10;;;;;;;24.75;31.17;99832.84;78474;1301;3052330;-60
2024/04/09 10:25:38;;;;;;;7.60;2.80;;;;;;;24.85;31.29;99832.11;79225;1302;3011561;-59
2024/04/09 10:28:07;;;;;;;14.70;3.70;;;;;;;24.87;31.17;99830.92;78183;1301;3052895;-60
2024/04/09 10:30:34;;;;;;;8.90;3.00;;;;;;;25.02;31.06;99828.14;79357;1300;3013132;-60
2024/04/09 10:33:02;;;;;;;8.80;2.70;;;;;;;25.10;30.64;99832.83;79361;1302;3012030;-60
2024/04/09 10:35:30;;;;;;;8.10;3.00;;;;;;;25.19;30.51;99830.91;78078;1301;3055703;-61
2024/04/09 10:37:58;;;;;;;8.70;3.40;;;;;;;25.33;30.47;99826.38;79259;1302;3013370;-61
2024/04/09 10:40:25;;;;;;;9.60;3.30;;;;;;;25.36;30.28;99825.33;79362;1299;3011949;-61
2024/04/09 10:42:54;;;;;;;6.90;2.90;;;;;;;25.48;30.45;99824.33;78180;1309;3052610;-60
2024/04/09 10:45:20;;;;;;;10.60;3.00;;;;;;;25.59;30.19;99821.57;79323;1309;3013361;-60
2024/04/09 10:47:47;;;;;;;8.90;3.30;;;;;;;25.53;29.81;99817.98;79787;1296;3012986;-62
2024/04/09 10:50:15;;;;;;;11.40;2.90;;;;;;;25.61;29.96;99814.70;78051;1302;3056065;-60
2024/04/09 10:52:42;;;;;;;8.00;3.20;;;;;;;25.80;29.79;99811.72;79348;1300;3012891;-60
2024/04/09 10:55:13;;;;;;;5.40;2.80;;;;;;;25.91;29.59;99805.34;79286;1300;3013767;-59
2024/04/09 10:57:42;;;;;;;6.70;2.60;;;;;;;25.73;29.61;99805.86;77998;1301;3052855;-57
2024/04/09 11:00:10;;;;;;;11.80;2.80;;;;;;;25.70;29.76;99803.41;79359;1301;3013258;-62
2024/04/09 11:02:41;;;;;;;11.30;3.50;;;;;;;25.91;29.52;99799.58;78253;1295;3053472;-58
2024/04/09 11:05:11;;;;;;;6.60;2.50;;;;;;;26.07;29.40;99794.19;79412;1302;3015033;-59
2024/04/09 11:07:41;;;;;;;6.60;2.50;;;;;;;25.88;29.63;99792.20;78036;1302;3052069;-59
2024/04/09 11:10:12;;;;;;;6.10;2.70;;;;;;;25.99;29.07;99796.01;79356;1302;3013315;-58
2024/04/09 11:12:54;;;;;;;5.90;2.50;;;;;;;26.16;29.01;99791.09;78100;1301;3053958;-59
2024/04/09 11:15:22;;;;;;;5.50;2.60;;;;;;;26.31;28.68;99786.55;78089;1301;3052634;-59
2024/04/09 11:17:49;;;;;;;8.50;2.80;;;;;;;26.19;28.58;99787.75;79589;1299;3011687;-59
2024/04/09 11:20:18;;;;;;;8.10;3.10;;;;;;;26.34;28.65;99780.16;79468;1296;3011945;-60